createdAt,value
2023-04-04T18:39:59.583Z,15.90
2023-04-04T18:42:28.346Z,17.90
2023-04-04T18:44:57.342Z,17.80
2023-04-04T18:47:28.041Z,11.60
2023-04-04T18:49:57.119Z,15.50
2023-04-04T18:52:25.977Z,15.40
2023-04-04T18:54:54.754Z,16.80
2023-04-04T18:57:24.056Z,16.70
2023-04-04T18:59:53.207Z,18.00
2023-04-04T19:02:22.400Z,19.40
2023-04-04T19:04:56.676Z,20.00
2023-04-04T19:07:28.164Z,18.30
2023-04-04T19:09:58.325Z,20.50
2023-04-04T19:12:27.235Z,14.80
2023-04-04T19:14:56.238Z,18.10
2023-04-04T19:17:25.016Z,23.30
2023-04-04T19:19:54.121Z,26.70
2023-04-04T19:22:22.821Z,26.20
2023-04-04T19:24:51.444Z,20.90
2023-04-04T19:27:20.527Z,23.00
2023-04-04T19:29:49.522Z,23.80
2023-04-04T19:32:20.043Z,17.40
2023-04-04T19:34:53.492Z,16.70
2023-04-04T19:37:23.430Z,21.80
2023-04-04T19:39:52.243Z,20.40
2023-04-04T19:42:28.788Z,20.60
2023-04-04T19:44:57.619Z,24.40
2023-04-04T19:47:26.347Z,26.90
2023-04-04T19:49:55.270Z,25.50
2023-04-04T19:52:24.715Z,24.60
2023-04-04T19:54:53.290Z,20.30
2023-04-04T19:57:23.593Z,18.10
2023-04-04T20:00:13.732Z,17.20
2023-04-04T20:02:50.449Z,16.50
2023-04-04T20:05:32.843Z,15.00
2023-04-04T20:08:01.859Z,17.80
2023-04-04T20:10:41.041Z,16.70
2023-04-04T20:13:10.778Z,14.80
2023-04-04T20:15:48.887Z,16.70
2023-04-04T20:18:25.653Z,16.20
2023-04-04T20:21:07.890Z,19.40
2023-04-04T20:24:00.704Z,15.40
2023-04-04T20:26:55.397Z,16.20
2023-04-04T20:29:37.407Z,18.60
2023-04-04T20:32:10.621Z,18.00
2023-04-04T20:34:50.879Z,20.90
2023-04-04T20:37:26.627Z,20.10
2023-04-04T20:40:00.919Z,22.10
2023-04-04T20:42:30.579Z,21.80
2023-04-04T20:45:41.458Z,23.70
2023-04-04T20:48:37.606Z,28.30
2023-04-04T20:51:23.973Z,36.90
2023-04-04T20:53:56.299Z,30.80
2023-04-04T20:56:40.670Z,29.70
2023-04-04T20:59:33.498Z,25.20
2023-04-04T21:02:16.982Z,18.80
2023-04-04T21:04:49.963Z,19.40
2023-04-04T21:07:42.016Z,20.40
2023-04-04T21:10:23.653Z,19.90
2023-04-04T21:15:39.466Z,20.70
2023-04-04T21:18:10.592Z,15.40
2023-04-04T21:20:45.850Z,19.10
2023-04-04T21:23:33.076Z,16.00
2023-04-04T21:26:04.685Z,27.40
2023-04-04T21:28:35.633Z,22.90
2023-04-04T21:31:15.142Z,22.20
2023-04-04T21:33:46.773Z,15.70
2023-04-04T21:36:29.751Z,13.50
2023-04-04T21:39:07.222Z,15.20
2023-04-04T21:41:36.563Z,16.00
2023-04-04T21:44:09.295Z,16.80
2023-04-04T21:46:40.671Z,18.90
2023-04-04T21:49:10.382Z,20.00
2023-04-04T21:51:39.187Z,18.60
2023-04-04T21:54:08.795Z,16.40
2023-04-04T21:56:38.641Z,15.80
